Aérodrome :
LOGIN :

S'inscrire | Disclaimer

   EN    FR    IT 

 










Légende :    VFR   VFR Marginal   IFR   IFR Intensif   IFR Très Intensif
Visi : 
Plafond : 
>= 8 km
>= 3000ft
5 à 8 km
1000 à 3000 ft
1500m à 5 km
500 à 1000 ft
800 à 1500m
200 à 500 ft
< 800m
< 200 ft
Symboles :   Orages  Brouillard  Fortes neiges  Fortes précipitations  Vent > 20 kt
SIGMETs :   Divers  Orages  Givrage  Turbulence  Onde Orograph.  Cendres Volcan.






- Altitude de l'aérodrome : 171 ft
- Code IATA : EGC


LFBE - Bergerac

DERNIER METAR :
  • 260530Z AUTO 09002KT 5000 -RA BR OVC020/// ///TCU 06/05 Q1018 TEMPO OVC005

METARs EXPIRÉS :
  • 260500Z AUTO 05003KT 7000 OVC021/// ///TCU 05/05 Q1018
  • 260430Z AUTO 06003KT 6000 BKN021 BKN056 OVC110 05/04 Q1018
  • 260400Z AUTO 07004KT 5000 BR BKN022 OVC110 05/04 Q1017
  • 260330Z AUTO 00000KT 5000 BR BKN023 OVC110 04/04 Q1018
  • 260300Z AUTO VRB02KT 6000 NSC 04/04 Q1018

TAF TAF LFBE
Valide du 26 à 06h jusqu'au 27 à 06h UTC


260500Z 2606/2706 VRB03KT 8000 BKN025
TEMPO 2606/2609 5000 -RA BKN013
PROB40
TEMPO 2606/2611 3000 BR OVC005
BECMG 2619/2621 CAVOK
PROB30
TEMPO 2700/2706 3000 BR BKN005



MET'MAP, la Météo Aéronautique d'un coup d'oeil ! - Copyright ORBIFLY Décembre 2007 - Disclaimer

ORBIFLY MET'MAP TEAM :

Programmation & Développement : Alexandra Zaïnal
Sur une idée originale de : Baudouin d'Aumeries
Assistance à la programmation : Marc-Olivier Méhu
Soutien technique & logistique : Manuel Goepfert

Contact : metmap@orbifly.com




SOURCES & CREDITS :

   NOAA